createdAt,value
2023-03-27T00:01:43.075Z,98161.47
2023-03-27T00:11:45.674Z,98141.78
2023-03-27T00:21:48.798Z,98118.34
2023-03-27T00:31:51.339Z,98110.16
2023-03-27T00:41:55.485Z,98096.44
2023-03-27T00:51:59.837Z,98077.03
2023-03-27T01:02:03.839Z,98066.72
2023-03-27T01:12:44.463Z,98054.28
2023-03-27T01:23:09.043Z,98027.19
2023-03-27T01:33:52.736Z,98030.91
2023-03-27T01:43:58.406Z,98008.94
2023-03-27T01:54:15.453Z,98003.06
2023-03-27T02:04:27.388Z,98009.78
2023-03-27T02:14:36.300Z,98013.91
2023-03-27T02:24:43.559Z,98036.47
2023-03-27T02:34:51.922Z,98026.66
2023-03-27T02:45:33.959Z,98000.13
2023-03-27T02:55:41.405Z,97990.28
2023-03-27T03:05:48.129Z,97999.91
2023-03-27T03:15:50.957Z,97993.75
2023-03-27T03:25:56.857Z,97997.34
2023-03-27T03:36:04.611Z,97991.44
2023-03-27T03:46:09.411Z,98015.72
2023-03-27T03:56:11.915Z,98012.00
2023-03-27T04:06:17.669Z,98016.75
2023-03-27T04:16:23.413Z,98028.16
2023-03-27T04:26:29.751Z,98040.78
2023-03-27T04:36:58.422Z,98044.34
2023-03-27T04:47:02.240Z,98060.75
2023-03-27T04:57:05.960Z,98059.03
2023-03-27T05:07:12.327Z,98084.72
2023-03-27T05:17:16.498Z,98071.47
2023-03-27T05:27:21.864Z,98075.44
2023-03-27T05:37:29.433Z,98074.72
2023-03-27T05:47:59.658Z,98099.94
2023-03-27T05:58:03.827Z,98097.84
2023-03-27T06:08:13.683Z,98117.22
2023-03-27T06:18:18.807Z,98127.47
2023-03-27T06:28:21.387Z,98139.16
2023-03-27T06:38:25.332Z,98143.56
2023-03-27T06:48:28.753Z,98138.91
2023-03-27T06:58:32.881Z,98137.22
2023-03-27T07:08:35.946Z,98163.50
2023-03-27T07:18:39.291Z,98183.44
2023-03-27T07:28:44.696Z,98196.13
2023-03-27T07:38:47.988Z,98182.22
2023-03-27T07:49:01.994Z,98200.31
2023-03-27T07:59:04.691Z,98204.81
2023-03-27T08:09:08.531Z,98213.38
2023-03-27T08:19:12.072Z,98222.75
2023-03-27T08:29:18.974Z,98256.53
2023-03-27T08:39:23.467Z,98247.50
2023-03-27T08:49:45.061Z,98264.63
2023-03-27T09:00:09.928Z,98278.56
2023-03-27T09:10:35.749Z,98278.03
2023-03-27T09:21:03.706Z,98286.44
2023-03-27T09:31:35.409Z,98295.50
2023-03-27T09:41:53.077Z,98307.38
2023-03-27T09:51:59.681Z,98319.69
2023-03-27T10:02:27.768Z,98321.13
2023-03-27T10:12:32.382Z,98332.41
2023-03-27T10:22:40.760Z,98349.38
2023-03-27T10:32:46.005Z,98362.22
2023-03-27T10:43:27.988Z,98398.81
2023-03-27T10:53:40.574Z,98433.91
2023-03-27T11:04:19.878Z,98509.13
2023-03-27T11:14:31.369Z,98538.31
2023-03-27T11:24:57.802Z,98587.41
2023-03-27T11:35:10.746Z,98611.75
2023-03-27T11:45:32.577Z,98634.25
2023-03-27T11:56:06.900Z,98635.47
2023-03-27T12:06:15.722Z,98682.88
2023-03-27T12:16:41.600Z,98702.22
2023-03-27T12:27:05.395Z,98743.38
2023-03-27T12:37:38.324Z,98749.69
2023-03-27T12:48:05.424Z,98779.72
2023-03-27T12:58:12.754Z,98797.41
2023-03-27T13:08:59.567Z,98824.75
2023-03-27T13:19:13.259Z,98816.94
2023-03-27T13:29:36.378Z,98863.13
2023-03-27T13:40:27.326Z,98871.16
2023-03-27T13:51:09.961Z,98942.63
2023-03-27T14:01:36.600Z,98936.38
2023-03-27T14:12:01.818Z,98953.63
2023-03-27T14:22:38.365Z,98950.34
2023-03-27T14:32:43.178Z,98989.03
2023-03-27T14:42:50.506Z,98991.59
2023-03-27T14:52:56.453Z,99010.28
2023-03-27T15:03:19.023Z,99038.28
2023-03-27T15:13:26.800Z,99053.28
2023-03-27T15:23:36.936Z,99062.53
2023-03-27T15:33:55.162Z,99081.94
2023-03-27T15:44:18.067Z,99110.31
2023-03-27T15:54:23.342Z,99131.72
2023-03-27T16:04:35.420Z,99168.13
2023-03-27T16:14:40.878Z,99187.16
2023-03-27T16:24:43.620Z,99213.16
2023-03-27T16:34:51.586Z,99231.63
2023-03-27T16:44:54.754Z,99275.44
2023-03-27T16:54:57.394Z,99284.13
2023-03-27T17:04:59.925Z,99310.13
2023-03-27T17:15:03.658Z,99323.66
2023-03-27T17:25:10.505Z,99363.22
2023-03-27T17:35:13.350Z,99391.94
2023-03-27T17:45:16.568Z,99420.44
2023-03-27T17:55:19.231Z,99433.78
2023-03-27T18:05:22.591Z,99449.34
2023-03-27T18:15:41.118Z,99472.44
2023-03-27T18:25:43.841Z,99480.63
2023-03-27T18:35:52.668Z,99493.28
2023-03-27T18:46:00.558Z,99503.31
2023-03-27T18:56:04.010Z,99529.00
2023-03-27T19:06:09.559Z,99529.25
2023-03-27T19:16:15.007Z,99532.16
2023-03-27T19:26:45.367Z,99529.94
2023-03-27T19:36:50.101Z,99570.25
2023-03-27T19:46:54.196Z,99580.56
2023-03-27T19:56:57.012Z,99600.09
2023-03-27T20:07:02.137Z,99595.94
2023-03-27T20:17:07.935Z,99597.97
2023-03-27T20:27:19.920Z,99602.03
2023-03-27T20:37:27.107Z,99604.66
2023-03-27T20:47:52.841Z,99608.38
2023-03-27T20:57:56.534Z,99617.88
2023-03-27T21:07:59.875Z,99626.53
2023-03-27T21:18:03.496Z,99643.97
2023-03-27T21:28:06.867Z,99663.13
2023-03-27T21:38:09.869Z,99662.41
2023-03-27T21:48:13.012Z,99662.69
2023-03-27T21:58:17.446Z,99675.69
2023-03-27T22:08:20.535Z,99684.66
2023-03-27T22:18:25.624Z,99691.69
2023-03-27T22:28:30.971Z,99689.69
2023-03-27T22:38:33.946Z,99691.56
2023-03-27T22:48:36.889Z,99704.16
2023-03-27T22:58:39.436Z,99712.84
2023-03-27T23:08:41.876Z,99725.31
2023-03-27T23:18:44.342Z,99728.94
2023-03-27T23:28:46.983Z,99757.97
2023-03-27T23:38:51.591Z,99768.47
2023-03-27T23:48:54.029Z,99804.22
2023-03-27T23:58:57.172Z,99804.34
